createdAt,value
2022-11-26T00:01:13.034Z,6.97
2022-11-26T00:06:44.897Z,6.38
2022-11-26T00:11:46.991Z,6.40
2022-11-26T00:16:52.010Z,7.28
2022-11-26T00:21:54.087Z,6.65
2022-11-26T00:26:59.073Z,6.90
2022-11-26T00:32:01.205Z,8.05
2022-11-26T00:37:03.377Z,6.43
2022-11-26T00:42:05.494Z,7.30
2022-11-26T00:47:09.707Z,6.32
2022-11-26T00:52:33.863Z,7.47
2022-11-26T00:57:36.532Z,7.28
2022-11-26T01:02:38.471Z,7.25
2022-11-26T01:07:42.033Z,7.13
2022-11-26T01:12:44.324Z,7.43
2022-11-26T01:17:46.461Z,5.85
2022-11-26T01:22:50.026Z,5.38
2022-11-26T01:27:53.016Z,6.00
2022-11-26T01:32:55.239Z,5.60
2022-11-26T01:37:57.488Z,6.78
2022-11-26T01:43:07.578Z,5.72
2022-11-26T01:48:38.824Z,6.72
2022-11-26T01:53:53.382Z,6.47
2022-11-26T01:59:03.272Z,7.57
2022-11-26T02:04:16.765Z,7.43
2022-11-26T02:09:20.107Z,6.68
2022-11-26T02:14:43.339Z,5.93
2022-11-26T02:20:22.988Z,5.75
2022-11-26T02:25:46.777Z,6.18
2022-11-26T02:30:59.353Z,7.07
2022-11-26T02:36:18.132Z,6.43
2022-11-26T02:41:20.187Z,7.63
2022-11-26T02:46:22.301Z,8.00
2022-11-26T02:51:31.969Z,6.68
2022-11-26T02:56:38.342Z,5.57
2022-11-26T03:06:50.783Z,5.72
2022-11-26T03:11:52.919Z,6.63
2022-11-26T03:16:55.063Z,6.13
2022-11-26T03:21:57.131Z,7.57
2022-11-26T03:26:59.477Z,7.97
2022-11-26T03:32:01.562Z,6.90
2022-11-26T03:37:03.790Z,7.78
2022-11-26T03:42:05.994Z,7.60
2022-11-26T03:47:08.116Z,6.50
2022-11-26T03:52:10.237Z,6.60
2022-11-26T03:57:12.717Z,6.25
2022-11-26T04:02:14.785Z,6.25
2022-11-26T04:07:16.918Z,7.13
2022-11-26T04:12:18.980Z,7.13
2022-11-26T04:17:21.096Z,6.43
2022-11-26T04:22:23.253Z,7.60
2022-11-26T04:27:25.425Z,7.28
2022-11-26T04:32:27.569Z,5.75
2022-11-26T04:37:29.604Z,5.05
2022-11-26T04:42:31.645Z,5.47
2022-11-26T04:47:33.784Z,6.80
2022-11-26T04:52:35.853Z,5.80
2022-11-26T04:57:37.907Z,6.57
2022-11-26T05:02:39.973Z,6.07
2022-11-26T05:07:42.295Z,7.05
2022-11-26T05:12:44.366Z,6.43
2022-11-26T05:17:46.636Z,6.93
2022-11-26T05:22:48.666Z,6.93
2022-11-26T05:27:50.711Z,5.80
2022-11-26T05:32:52.731Z,5.65
2022-11-26T05:37:54.706Z,5.07
2022-11-26T05:42:56.830Z,5.65
2022-11-26T05:47:59.013Z,5.57
2022-11-26T05:53:01.583Z,4.05
2022-11-26T05:58:03.970Z,4.88
2022-11-26T06:03:06.200Z,5.28
2022-11-26T06:08:08.603Z,4.70
2022-11-26T06:13:11.111Z,6.30
2022-11-26T06:18:13.243Z,5.45
2022-11-26T06:23:15.348Z,5.88
2022-11-26T06:28:17.354Z,5.63
2022-11-26T06:33:19.395Z,5.13
2022-11-26T06:38:21.464Z,5.68
2022-11-26T06:43:23.536Z,5.68
2022-11-26T06:48:25.817Z,5.05
2022-11-26T06:53:27.798Z,5.60
2022-11-26T06:58:29.934Z,5.82
2022-11-26T07:03:33.530Z,5.18
2022-11-26T07:08:35.715Z,6.15
2022-11-26T07:13:37.987Z,5.88
2022-11-26T07:18:40.503Z,5.65
2022-11-26T07:23:42.895Z,5.50
2022-11-26T07:28:45.157Z,6.05
2022-11-26T07:33:47.558Z,6.05
2022-11-26T07:38:50.225Z,5.88
2022-11-26T07:43:52.394Z,6.68
2022-11-26T07:48:57.735Z,6.40
2022-11-26T07:54:06.115Z,5.40
2022-11-26T07:59:08.148Z,4.90
2022-11-26T08:04:10.401Z,6.45
2022-11-26T08:09:12.423Z,6.40
2022-11-26T08:14:14.508Z,5.57
2022-11-26T08:19:18.169Z,4.22
2022-11-26T08:24:20.665Z,4.65
2022-11-26T08:29:22.598Z,4.55
2022-11-26T08:34:24.664Z,4.90
2022-11-26T08:39:26.918Z,4.97
2022-11-26T08:44:28.938Z,4.88
2022-11-26T08:49:30.926Z,5.10
2022-11-26T08:54:33.645Z,5.60
2022-11-26T08:59:35.709Z,5.63
2022-11-26T09:04:38.118Z,4.28
2022-11-26T09:09:40.305Z,5.72
2022-11-26T09:14:42.717Z,5.55
2022-11-26T09:19:45.115Z,5.40
2022-11-26T09:24:47.231Z,5.82
2022-11-26T09:29:49.255Z,5.22
2022-11-26T09:34:52.965Z,5.22
2022-11-26T09:39:55.480Z,5.80
2022-11-26T09:45:15.480Z,5.60
2022-11-26T09:50:26.574Z,5.00
2022-11-26T09:55:35.657Z,5.28
2022-11-26T10:00:41.755Z,6.18
2022-11-26T10:05:54.055Z,5.85
2022-11-26T10:11:04.307Z,4.75
2022-11-26T10:16:24.604Z,4.88
2022-11-26T10:21:57.628Z,4.40
2022-11-26T10:27:01.841Z,4.57
2022-11-26T10:32:23.932Z,5.72
2022-11-26T10:42:41.425Z,5.95
2022-11-26T10:47:43.374Z,4.85
2022-11-26T10:52:46.517Z,5.43
2022-11-26T10:57:58.256Z,5.43
2022-11-26T11:03:02.736Z,5.38
2022-11-26T11:08:04.954Z,5.88
2022-11-26T11:13:15.042Z,5.40
2022-11-26T11:24:00.084Z,5.55
2022-11-26T11:28:55.886Z,5.47
2022-11-26T11:34:24.098Z,4.82
2022-11-26T11:39:32.922Z,5.68
2022-11-26T11:44:44.663Z,4.90
2022-11-26T11:50:12.288Z,5.72
2022-11-26T11:55:32.692Z,6.30
2022-11-26T12:01:03.719Z,5.97
2022-11-26T12:06:43.556Z,4.30
2022-11-26T12:11:59.329Z,5.32
2022-11-26T12:17:21.495Z,5.03
2022-11-26T12:22:37.432Z,4.47
2022-11-26T12:27:46.332Z,4.60
2022-11-26T12:33:02.072Z,3.33
2022-11-26T12:38:30.292Z,5.20
2022-11-26T12:43:56.744Z,4.88
2022-11-26T12:49:24.912Z,4.18
2022-11-26T12:59:38.477Z,5.60
2022-11-26T13:04:40.656Z,4.70
2022-11-26T13:09:51.447Z,4.18
2022-11-26T13:15:05.437Z,5.25
2022-11-26T13:20:35.155Z,4.95
2022-11-26T13:26:05.170Z,4.43
2022-11-26T13:31:51.318Z,3.75
2022-11-26T13:42:49.976Z,3.90
2022-11-26T13:48:07.724Z,3.95
2022-11-26T13:53:25.023Z,4.97
2022-11-26T13:58:42.199Z,5.18
2022-11-26T14:03:48.031Z,4.10
2022-11-26T14:08:53.261Z,3.97
2022-11-26T14:14:26.014Z,4.30
2022-11-26T14:19:40.371Z,5.38
2022-11-26T14:24:51.292Z,5.55
2022-11-26T14:29:55.208Z,5.00
2022-11-26T14:40:20.159Z,3.80
2022-11-26T14:45:24.404Z,4.15
2022-11-26T14:50:26.978Z,4.22
2022-11-26T14:55:30.950Z,4.03
2022-11-26T15:00:33.907Z,3.60
2022-11-26T15:05:42.066Z,4.20
2022-11-26T15:16:01.895Z,4.50
2022-11-26T15:21:06.706Z,3.28
2022-11-26T15:26:17.424Z,3.15
2022-11-26T15:31:19.558Z,4.85
2022-11-26T15:36:21.733Z,3.58
2022-11-26T15:41:23.898Z,3.65
2022-11-26T15:46:35.647Z,4.00
2022-11-26T15:51:49.719Z,3.80
2022-11-26T15:57:07.672Z,3.15
2022-11-26T16:02:21.941Z,3.45
2022-11-26T16:07:27.923Z,2.47
2022-11-26T16:12:34.738Z,3.10
2022-11-26T16:17:37.416Z,3.33
2022-11-26T16:22:39.558Z,2.50
2022-11-26T16:27:44.242Z,3.53
2022-11-26T16:32:51.824Z,3.33
2022-11-26T16:37:53.942Z,3.08
2022-11-26T16:42:56.009Z,3.20
2022-11-26T16:47:58.058Z,3.88
2022-11-26T16:53:00.311Z,3.30
2022-11-26T16:58:04.385Z,3.85
2022-11-26T17:03:10.173Z,3.70
2022-11-26T17:08:15.244Z,3.13
2022-11-26T17:13:18.082Z,2.90
2022-11-26T17:18:22.920Z,3.63
2022-11-26T17:23:25.019Z,2.92
2022-11-26T17:28:27.815Z,2.80
2022-11-26T17:33:29.910Z,2.97
2022-11-26T17:38:32.142Z,4.00
2022-11-26T17:43:34.501Z,3.83
2022-11-26T17:48:36.641Z,4.20
2022-11-26T17:53:38.784Z,4.00
2022-11-26T17:58:40.980Z,4.28
2022-11-26T18:03:44.151Z,3.75
2022-11-26T18:08:46.713Z,4.00
2022-11-26T18:13:48.823Z,3.70
2022-11-26T18:18:50.928Z,3.95
2022-11-26T18:23:53.109Z,2.92
2022-11-26T18:28:55.895Z,2.15
2022-11-26T18:33:59.332Z,3.00
2022-11-26T18:39:04.197Z,2.83
2022-11-26T18:44:06.317Z,2.50
2022-11-26T18:49:08.372Z,3.00
2022-11-26T18:54:10.414Z,3.83
2022-11-26T18:59:14.104Z,3.10
2022-11-26T19:04:16.225Z,3.28
2022-11-26T19:09:20.183Z,2.38
2022-11-26T19:14:22.473Z,2.38
2022-11-26T19:19:24.605Z,2.28
2022-11-26T19:24:26.769Z,2.53
2022-11-26T19:29:28.874Z,2.60
2022-11-26T19:34:30.883Z,2.97
2022-11-26T19:39:32.941Z,2.30
2022-11-26T19:44:35.896Z,2.03
2022-11-26T19:49:38.249Z,2.00
2022-11-26T19:54:40.514Z,2.75
2022-11-26T19:59:42.596Z,2.50
2022-11-26T20:04:44.632Z,3.33
2022-11-26T20:09:46.587Z,2.30
2022-11-26T20:14:48.579Z,2.13
2022-11-26T20:19:50.865Z,2.38
2022-11-26T20:24:53.064Z,2.13
2022-11-26T20:29:55.212Z,2.97
2022-11-26T20:34:58.524Z,2.30
2022-11-26T20:40:00.769Z,2.10
2022-11-26T20:45:03.599Z,2.15
2022-11-26T20:50:07.166Z,1.92
2022-11-26T20:55:10.240Z,1.55
2022-11-26T21:00:17.225Z,2.28
2022-11-26T21:05:19.586Z,2.17
2022-11-26T21:10:25.355Z,2.10
2022-11-26T21:15:27.324Z,2.60
2022-11-26T21:20:34.846Z,2.90
2022-11-26T21:25:40.476Z,2.85
2022-11-26T21:30:42.653Z,2.67
2022-11-26T21:35:44.752Z,3.05
2022-11-26T21:40:46.760Z,2.40
2022-11-26T21:45:48.923Z,2.55
2022-11-26T21:50:51.015Z,3.15
2022-11-26T21:55:53.302Z,2.33
2022-11-26T22:00:55.709Z,2.92
2022-11-26T22:05:59.842Z,2.38
2022-11-26T22:11:08.813Z,1.88
2022-11-26T22:16:12.313Z,2.75
2022-11-26T22:21:18.747Z,2.40
2022-11-26T22:26:21.518Z,2.15
2022-11-26T22:31:29.917Z,2.50
2022-11-26T22:36:32.673Z,2.15
2022-11-26T22:41:34.775Z,2.17
2022-11-26T22:46:38.597Z,2.28
2022-11-26T22:51:40.824Z,2.42
2022-11-26T22:56:42.768Z,1.80
2022-11-26T23:01:45.019Z,2.58
2022-11-26T23:06:47.176Z,2.47
2022-11-26T23:11:49.067Z,2.33
2022-11-26T23:16:51.153Z,2.47
2022-11-26T23:21:53.215Z,2.20
2022-11-26T23:26:55.289Z,2.40
2022-11-26T23:31:57.602Z,2.17
2022-11-26T23:36:59.625Z,1.95
2022-11-26T23:42:01.707Z,1.95
2022-11-26T23:47:03.862Z,1.80
2022-11-26T23:52:06.387Z,2.10
2022-11-26T23:57:13.472Z,1.33
